Happy Valentine's Day! 

Flight Track Log - Related Links

Times and Time Zones

All times are in EST time to prevent confusion due to time zone crossing. See the AAY894 flight status page for this flight to view local times or setup timezone preferences in your user account.


Time Position Orientation Groundspeed Altitude Reporting Facility
EST Latitude Longitude Course Direction KTS MPH feet Rate Location/Type
Thu 08:34:56 AM 27.8833 -82.6833 180° South 168 193 1,000  Level Tampa TRACON
Thu 08:35:26 AM 27.8667 -82.6833 180° South 169 194 2,100 2,000 Climbing Tampa TRACON
Thu 08:36:26 AM 27.8500 -82.7333 249° West 250 288 4,000 2,400 Climbing Tampa TRACON
Thu 08:38:06 AM 27.9753 -82.7300 North 312 359 8,500 2,609 Climbing Miami Center
Thu 08:39:07 AM 28.0556 -82.6814 28° Northeast 321 369 11,000 2,050 Climbing Miami Center
Thu 08:40:06 AM 28.1517 -82.6289 26° Northeast 335 386 12,600 2,067 Climbing Jacksonville Center
Thu 08:41:06 AM 28.2517 -82.5722 27° Northeast 373 429 15,100 2,300 Climbing Jacksonville Center
Thu 08:42:06 AM 28.3600 -82.5058 28° Northeast 406 467 17,200 1,850 Climbing Jacksonville Center
Thu 08:43:06 AM 28.4706 -82.4606 20° North 417 480 18,800 1,350 Climbing Jacksonville Center
Thu 08:44:06 AM 28.5853 -82.4458 North 417 480 19,900 1,150 Climbing Jacksonville Center
Thu 08:45:06 AM 28.6772 -82.4689 348° North 405 466 21,100 1,350 Climbing Jacksonville Center
Thu 08:46:06 AM 28.8067 -82.4944 350° North 410 472 22,600 1,500 Climbing Jacksonville Center
Thu 08:47:06 AM 28.9236 -82.5178 350° North 415 478 24,100 1,300 Climbing Jacksonville Center
Thu 08:48:06 AM 29.0469 -82.5411 351° North 427 491 25,200 1,150 Climbing Jacksonville Center
Thu 08:49:06 AM 29.1700 -82.5619 352° North 439 505 26,400 1,050 Climbing Jacksonville Center
Thu 08:50:06 AM 29.2933 -82.5878 350° North 444 511 27,300 950 Climbing Jacksonville Center
Thu 08:51:06 AM 29.4414 -82.5803 North 466 536 28,300 1,050 Climbing Jacksonville Center
Thu 08:52:06 AM 29.5731 -82.5750 North 471 542 29,400 1,100 Climbing Jacksonville Center
Thu 08:53:06 AM 29.7067 -82.5722 North 471 542 30,500 800 Climbing Jacksonville Center
Thu 08:54:06 AM 29.8361 -82.5694 North 476 548 31,000 250 Climbing Jacksonville Center
Thu 08:55:06 AM 29.9739 -82.5642 North 476 548 31,000  Level Jacksonville Center
Thu 08:56:06 AM 30.1117 -82.5636 360° North 476 548 31,000 -50 Level Jacksonville Center
Thu 08:57:06 AM 30.2453 -82.5608 North 481 554 30,900  Descending Jacksonville Center
Thu 08:58:06 AM 30.3831 -82.5556 North 481 554 31,000 50 Climbing Jacksonville Center
Thu 08:59:06 AM 30.5186 -82.5525 North 481 554 31,000 -50 Level Jacksonville Center
Thu 09:00:06 AM 30.6564 -82.5447 North 481 554 30,900  Descending Jacksonville Center
Thu 09:01:06 AM 30.7900 -82.5419 North 475 547 31,000 50 Climbing Jacksonville Center
Thu 09:02:06 AM 30.9258 -82.5367 North 475 547 31,000  Level Jacksonville Center
Thu 09:03:06 AM 31.0636 -82.5311 North 480 552 31,000 -50 Level Jacksonville Center
Thu 09:04:06 AM 31.1972 -82.5258 North 480 552 30,900 -50 Descending Jacksonville Center
Thu 09:05:06 AM 31.3372 -82.5206 North 481 554 30,900 50 Level Jacksonville Center
Thu 09:06:06 AM 31.4622 -82.5125 North 489 563 31,000 50 Climbing Jacksonville Center
Thu 09:07:06 AM 31.6042 -82.4975 North 496 571 31,000  Level Jacksonville Center
Thu 09:08:07 AM 31.7461 -82.4747 North 507 583 31,000  Level Jacksonville Center
Thu 09:09:46 AM 31.9928 -82.4372 North 499 574 31,000  Level Atlanta Center
Thu 09:10:46 AM 32.1344 -82.4175 North 504 580 31,000  Level Atlanta Center
Thu 09:11:46 AM 32.2719 -82.3931 North 504 580 31,000  Level Atlanta Center
Thu 09:12:46 AM 32.4136 -82.3706 North 497 572 31,000  Level Atlanta Center
Thu 09:13:46 AM 32.5531 -82.3458 North 503 579 31,000  Level Atlanta Center
Thu 09:14:46 AM 32.6928 -82.3258 North 503 579 31,000  Level Atlanta Center
Thu 09:15:46 AM 32.8364 -82.3033 North 503 579 31,000  Level Atlanta Center
Thu 09:16:46 AM 32.9758 -82.2808 North 503 579 31,000  Level Atlanta Center
Thu 09:17:46 AM 33.1175 -82.2581 North 503 579 31,000  Level Atlanta Center
Thu 09:18:46 AM 33.2447 -82.2381 North 503 579 31,000  Level Atlanta Center
Thu 09:19:46 AM 33.3842 -82.2153 North 503 579 31,000  Level Atlanta Center
Thu 09:20:46 AM 33.5236 -82.1897 North 503 579 31,000  Level Atlanta Center
Thu 09:21:46 AM 33.6631 -82.1669 North 503 579 31,000  Level Atlanta Center
Thu 09:22:46 AM 33.8025 -82.1439 North 503 579 31,000  Level Atlanta Center
Thu 09:23:46 AM 33.9400 -82.1208 North 503 579 31,000  Level Atlanta Center
Thu 09:24:46 AM 34.0794 -82.0975 North 503 579 31,000  Level Atlanta Center
Thu 09:25:46 AM 34.2167 -82.0719 North 503 579 31,000  Level Atlanta Center
Thu 09:26:46 AM 34.3708 -82.0456 North 503 579 31,000  Level Atlanta Center
Thu 09:27:46 AM 34.5081 -82.0222 North 498 573 31,000  Level Atlanta Center
Thu 09:28:46 AM 34.6456 -81.9961 North 498 573 31,000  Level Atlanta Center
Thu 09:29:46 AM 34.7828 -81.9725 North 503 579 31,000  Level Atlanta Center
Thu 09:30:46 AM 34.9203 -81.9514 North 503 579 31,000  Level Atlanta Center
Thu 09:31:46 AM 35.0575 -81.9253 North 503 579 31,000  Level Atlanta Center
Thu 09:32:46 AM 35.1944 -81.8861 13° North 503 579 31,000  Level Atlanta Center
Thu 09:33:46 AM 35.3294 -81.8469 13° North 503 579 31,000  Level Atlanta Center
Thu 09:34:46 AM 35.4644 -81.8075 13° North 503 579 31,000  Level Atlanta Center
Thu 09:35:46 AM 35.6033 -81.7681 13° North 503 579 31,000  Level Atlanta Center
Thu 09:36:46 AM 35.7236 -81.7342 13° North 503 579 31,000  Level Atlanta Center
Thu 09:37:46 AM 35.8628 -81.6942 13° North 503 579 31,000  Level Atlanta Center
Thu 09:38:46 AM 35.9956 -81.6544 14° North 503 579 31,000  Level Atlanta Center
Thu 09:39:46 AM 36.1344 -81.6169 12° North 503 579 31,000  Level Atlanta Center
Thu 09:40:46 AM 36.2692 -81.5742 14° North 502 578 31,000  Level Atlanta Center
Thu 09:41:46 AM 36.4081 -81.5314 14° North 502 578 31,000  Level Atlanta Center
Thu 09:42:46 AM 36.5450 -81.4933 13° North 502 578 31,000  Level Atlanta Center
Thu 09:43:46 AM 36.6817 -81.4528 13° North 502 578 31,000  Level Atlanta Center
Thu 09:44:46 AM 36.8122 -81.4122 14° North 499 574 31,000  Level Atlanta Center
Thu 09:47:17 AM 37.1789 -81.3042 13° North 506 582 31,000  Level Indianapolis Center
Thu 09:48:19 AM 37.2944 -81.2689 14° North 506 582 31,000  Level Indianapolis Center
Thu 09:49:22 AM 37.4564 -81.2206 13° North 506 582 31,000  Level Indianapolis Center
Thu 09:50:24 AM 37.5906 -81.1808 13° North 506 582 31,000  Level Indianapolis Center
Thu 09:51:26 AM 37.7239 -81.1400 14° North 506 582 31,000  Level Indianapolis Center
Thu 09:52:28 AM 37.8625 -81.0992 13° North 506 582 31,000  Level Indianapolis Center
Thu 09:53:30 AM 38.0258 -81.0517 13° North 506 582 31,000  Level Indianapolis Center
Thu 09:54:32 AM 38.1606 -81.0119 13° North 501 577 31,000  Level Indianapolis Center
Thu 09:55:34 AM 38.2956 -80.9736 13° North 501 577 31,000  Level Indianapolis Center
Thu 09:56:36 AM 38.4300 -80.9342 13° North 501 577 31,000  Level Indianapolis Center
Thu 09:57:38 AM 38.5647 -80.8944 13° North 501 577 31,000  Level Indianapolis Center
Thu 09:58:40 AM 38.7256 -80.8478 13° North 500 575 31,000  Level Indianapolis Center
Thu 09:59:42 AM 38.8583 -80.8069 13° North 499 574 31,000  Level Indianapolis Center
Thu 10:00:44 AM 38.9914 -80.7681 13° North 497 572 31,000  Level Indianapolis Center
Thu 10:01:47 AM 39.1233 -80.7300 13° North 492 566 31,000  Level Indianapolis Center
Thu 10:02:49 AM 39.2561 -80.6914 13° North 491 565 31,000  Level Indianapolis Center
Thu 10:03:51 AM 39.3839 -80.6500 14° North 481 554 31,000  Level Indianapolis Center
Thu 10:04:53 AM 39.5414 -80.6056 12° North 481 554 31,000  Level Indianapolis Center
Thu 10:05:51 AM 39.6511 -80.5658 16° North 478 550 31,000  Level Cleveland Center
Thu 10:06:53 AM 39.7775 -80.5075 20° North 479 551 31,000  Level Cleveland Center
Thu 10:07:55 AM 39.9050 -80.4486 20° North 486 559 31,000  Level Cleveland Center
Thu 10:08:57 AM 40.0583 -80.3811 19° North 485 558 31,000  Level Cleveland Center
Thu 10:09:58 AM 40.1850 -80.3244 19° North 482 555 31,000  Level Cleveland Center
Thu 10:11:00 AM 40.3153 -80.2658 19° North 488 562 31,000  Level Cleveland Center
Thu 10:12:02 AM 40.4389 -80.2103 19° North 497 572 31,000  Level Cleveland Center
Thu 10:13:04 AM 40.5639 -80.1517 20° North 482 555 31,000  Level Cleveland Center
Thu 10:14:06 AM 40.7164 -80.0833 19° North 481 554 31,000 -677 Level Cleveland Center
Thu 10:15:08 AM 40.8436 -80.0258 19° North 482 555 29,600 -1,366 Descending Cleveland Center
Thu 10:16:09 AM 40.9619 -79.9708 19° North 482 555 28,200 -1,415 Descending Cleveland Center
Thu 10:17:11 AM 41.0894 -79.9117 19° North 483 556 26,700 -1,500 Descending Cleveland Center
Thu 10:18:13 AM 41.2250 -79.8492 19° North 483 556 25,100 -1,306 Descending Cleveland Center
Thu 10:19:15 AM 41.3492 -79.7914 19° North 475 547 24,000 -532 Descending Cleveland Center
Thu 10:20:17 AM 41.4661 -79.7361 20° North 448 516 24,000  Level Cleveland Center
Thu 10:21:19 AM 41.6011 -79.6725 19° North 433 498 24,000  Level Cleveland Center
Thu 10:22:21 AM 41.7139 -79.6189 20° North 430 495 24,000  Level Cleveland Center
Thu 10:23:23 AM 41.8261 -79.5658 19° North 429 494 24,000  Level Cleveland Center
Thu 10:24:25 AM 41.9386 -79.5128 19° North 428 493 24,000  Level Cleveland Center
Thu 10:25:27 AM 42.0514 -79.4583 20° North 428 493 24,000 -823 Level Cleveland Center
Thu 10:26:29 AM 42.1631 -79.4053 19° North 428 493 22,300 -2,032 Descending Cleveland Center
Thu 10:27:31 AM 42.2922 -79.3425 20° North 407 468 19,800 -2,000 Descending Cleveland Center
Thu 10:29:35 AM 42.5033 -79.2419 19° North 378 435 16,100 -1,903 Descending Cleveland Center
Thu 10:30:37 AM 42.6011 -79.1944 20° North 360 414 13,900 -1,935 Descending Cleveland Center
Thu 10:31:39 AM 42.6867 -79.1533 19° North 342 394 12,100 -1,452 Descending Cleveland Center
Thu 10:32:41 AM 42.7700 -79.1119 20° North 311 358 10,900 -1,645 Descending Cleveland Center
Thu 10:33:43 AM 42.8456 -79.0758 19° North 282 325 8,700 -2,448 Descending Cleveland Center
Thu 10:34:46 AM 42.9167 -79.0406 20° North 269 310 5,800 -2,688 Descending Cleveland Center
Thu 10:35:48 AM 42.9881 -79.0050 20° North 267 307 3,100 -1,355 Descending Cleveland Center
Thu 10:36:50 AM 43.0506 -78.9753 19° North 238 274 3,000 -97 Descending Cleveland Center
Thu 10:37:52 AM 43.1072 -78.9481 19° North 216 249 2,900 -435 Descending Cleveland Center
Thu 10:38:54 AM 43.1708 -78.9656 349° North 231 266 2,100 -435 Descending Cleveland Center
Thu 10:39:56 AM 43.1775 -79.0453 277° West 225 259 2,000 -97 Descending Cleveland Center
Thu 10:40:58 AM 43.1325 -79.0350 171° South 176 203 1,900 -339 Descending Cleveland Center
Thu 10:42:00 AM 43.1100 -79.0097 141° Southeast 153 176 1,300 -581 Descending Cleveland Center

Login

Don't have an account? Register now (free) for customized features, flight alerts, and more!